SAMR/AFA METAR and TAF weather

Enter ICAO airport designator
Station Type Date Time Source
SAMR METAR 2020/12/01 22:20 UTC NOAA

SAMR 012220Z 32008KT 9999 TS SCT040 SCT045CB 17/14 Q1007


Station Type Date Time Source
SAMR Decoded METAR 2020/12/01 22:20 UTC NOAA

San Rafael Aerodrome, Argentina (SAMR) 34-35S 068-24W 748M
Dec 01, 2020 - 05:20 PM EST / 2020.12.01 2220 UTC
Wind: from the NW (320 degrees) at 9 MPH (8 KT):0
Visibility: greater than 7 mile(s):0
Sky conditions: partly cloudy
Weather: thunder; Cumulonimbus clouds observed
Temperature: 62 F (17 C)
Dew Point: 57 F (14 C)
Relative Humidity: 82%
Pressure (altimeter): 29.74 in. Hg (1007 hPa)
ob: SAMR 012220Z 32008KT 9999 TS SCT040 SCT045CB 17/14 Q1007
cycle: 22

Station Type Date Time Source
SAMR TAF 2020/10/17 12:12 UTC NOAA

TAF SAMR 171100Z 1712/1812 05005KT CAVOK TX36/1720Z TN15/1810Z

Example: see airport list